sensor_id;sensor_type;location;lat;lon;timestamp;pressure;altitude;pressure_sealevel;temperature;humidity
9141;BME280;46330;50.822;7.126;2022-11-20T00:00:53;100559.19;;;2.14;93.76
9141;BME280;46330;50.822;7.126;2022-11-20T00:03:22;100555.91;;;2.24;93.19
9141;BME280;46330;50.822;7.126;2022-11-20T00:05:50;100563.63;;;2.24;93.88
9141;BME280;46330;50.822;7.126;2022-11-20T00:08:17;100568.03;;;2.33;93.96
9141;BME280;46330;50.822;7.126;2022-11-20T00:10:45;100560.34;;;2.36;93.45
9141;BME280;46330;50.822;7.126;2022-11-20T00:13:14;100562.97;;;2.39;92.60
9141;BME280;46330;50.822;7.126;2022-11-20T00:15:42;100562.91;;;2.36;91.59
9141;BME280;46330;50.822;7.126;2022-11-20T00:18:10;100561.09;;;2.29;92.54
9141;BME280;46330;50.822;7.126;2022-11-20T00:20:37;100556.75;;;2.23;92.13
9141;BME280;46330;50.822;7.126;2022-11-20T00:23:05;100562.72;;;2.22;91.86
9141;BME280;46330;50.822;7.126;2022-11-20T00:25:34;100549.91;;;2.28;92.31
9141;BME280;46330;50.822;7.126;2022-11-20T00:28:02;100557.59;;;2.24;91.98
9141;BME280;46330;50.822;7.126;2022-11-20T00:30:31;100555.09;;;2.31;91.31
9141;BME280;46330;50.822;7.126;2022-11-20T00:32:59;100550.75;;;2.26;91.07
9141;BME280;46330;50.822;7.126;2022-11-20T00:35:27;100553.28;;;2.23;91.07
9141;BME280;46330;50.822;7.126;2022-11-20T00:37:54;100557.69;;;2.30;91.32
9141;BME280;46330;50.822;7.126;2022-11-20T00:40:22;100562.97;;;2.40;91.52
9141;BME280;46330;50.822;7.126;2022-11-20T00:42:50;100566.47;;;2.47;90.48
9141;BME280;46330;50.822;7.126;2022-11-20T00:45:17;100562.25;;;2.52;90.34
9141;BME280;46330;50.822;7.126;2022-11-20T00:47:46;100556.09;;;2.41;89.62
9141;BME280;46330;50.822;7.126;2022-11-20T00:50:14;100555.19;;;2.37;90.07
9141;BME280;46330;50.822;7.126;2022-11-20T00:52:42;100543.84;;;2.23;90.48
9141;BME280;46330;50.822;7.126;2022-11-20T00:55:10;100543.81;;;2.22;91.00
9141;BME280;46330;50.822;7.126;2022-11-20T00:57:38;100545.63;;;2.29;90.46
9141;BME280;46330;50.822;7.126;2022-11-20T01:00:06;100542.16;;;2.27;89.93
9141;BME280;46330;50.822;7.126;2022-11-20T01:02:34;100536.03;;;2.18;91.28
9141;BME280;46330;50.822;7.126;2022-11-20T01:05:04;100531.66;;;2.13;90.92
9141;BME280;46330;50.822;7.126;2022-11-20T01:07:32;100542.88;;;2.16;90.83
9141;BME280;46330;50.822;7.126;2022-11-20T01:09:59;100549.72;;;2.11;90.86
9141;BME280;46330;50.822;7.126;2022-11-20T01:12:27;100554.78;;;2.07;90.96
9141;BME280;46330;50.822;7.126;2022-11-20T01:14:55;100547.06;;;2.05;90.97
9141;BME280;46330;50.822;7.126;2022-11-20T01:17:22;100545.31;;;2.06;91.64
9141;BME280;46330;50.822;7.126;2022-11-20T01:19:50;100540.22;;;2.10;91.45
9141;BME280;46330;50.822;7.126;2022-11-20T01:22:19;100536.69;;;2.04;92.31
9141;BME280;46330;50.822;7.126;2022-11-20T01:24:47;100535.06;;;2.10;90.67
9141;BME280;46330;50.822;7.126;2022-11-20T01:27:15;100547.22;;;2.17;91.20
9141;BME280;46330;50.822;7.126;2022-11-20T01:29:43;100542.09;;;2.22;91.40
9141;BME280;46330;50.822;7.126;2022-11-20T01:32:11;100536.09;;;2.23;91.11
9141;BME280;46330;50.822;7.126;2022-11-20T01:34:38;100537.84;;;2.26;90.75
9141;BME280;46330;50.822;7.126;2022-11-20T01:37:06;100541.25;;;2.23;91.51
9141;BME280;46330;50.822;7.126;2022-11-20T01:39:35;100534.38;;;2.25;90.47
9141;BME280;46330;50.822;7.126;2022-11-20T01:42:03;100548.09;;;2.20;91.53
9141;BME280;46330;50.822;7.126;2022-11-20T01:44:55;100539.66;;;2.33;92.31
9141;BME280;46330;50.822;7.126;2022-11-20T01:47:30;100536.28;;;2.38;92.79
9141;BME280;46330;50.822;7.126;2022-11-20T01:50:00;100541.44;;;2.40;92.35
9141;BME280;46330;50.822;7.126;2022-11-20T01:52:32;100541.34;;;2.31;92.87
9141;BME280;46330;50.822;7.126;2022-11-20T01:55:05;100541.38;;;2.34;93.32
9141;BME280;46330;50.822;7.126;2022-11-20T01:57:35;100533.59;;;2.31;90.96
9141;BME280;46330;50.822;7.126;2022-11-20T02:00:06;100524.88;;;2.20;91.02
9141;BME280;46330;50.822;7.126;2022-11-20T02:02:45;100524.06;;;2.25;91.65
9141;BME280;46330;50.822;7.126;2022-11-20T02:05:19;100535.31;;;2.29;91.28
9141;BME280;46330;50.822;7.126;2022-11-20T02:07:50;100539.63;;;2.30;91.13
9141;BME280;46330;50.822;7.126;2022-11-20T02:10:20;100531.00;;;2.31;90.76
9141;BME280;46330;50.822;7.126;2022-11-20T02:12:48;100523.31;;;2.34;91.62
9141;BME280;46330;50.822;7.126;2022-11-20T02:15:33;100522.44;;;2.32;91.83
9141;BME280;46330;50.822;7.126;2022-11-20T02:18:01;100526.72;;;2.30;91.59
9141;BME280;46330;50.822;7.126;2022-11-20T02:20:29;100530.94;;;2.23;92.08
9141;BME280;46330;50.822;7.126;2022-11-20T02:22:59;100527.41;;;2.16;91.78
9141;BME280;46330;50.822;7.126;2022-11-20T02:25:32;100517.09;;;2.16;92.87
9141;BME280;46330;50.822;7.126;2022-11-20T02:28:02;100508.47;;;2.14;93.31
9141;BME280;46330;50.822;7.126;2022-11-20T02:30:30;100512.69;;;2.08;92.13
9141;BME280;46330;50.822;7.126;2022-11-20T02:32:58;100506.59;;;2.03;92.35
9141;BME280;46330;50.822;7.126;2022-11-20T02:35:43;100506.44;;;1.91;92.72
9141;BME280;46330;50.822;7.126;2022-11-20T02:38:12;100500.31;;;1.84;92.75
9141;BME280;46330;50.822;7.126;2022-11-20T02:40:42;100513.28;;;1.89;93.35
9141;BME280;46330;50.822;7.126;2022-11-20T02:43:10;100511.63;;;1.92;92.92
9141;BME280;46330;50.822;7.126;2022-11-20T02:45:38;100514.22;;;1.94;93.71
9141;BME280;46330;50.822;7.126;2022-11-20T02:48:06;100514.31;;;2.01;92.89
9141;BME280;46330;50.822;7.126;2022-11-20T02:50:37;100517.78;;;2.03;93.60
9141;BME280;46330;50.822;7.126;2022-11-20T02:53:06;100501.53;;;2.10;93.05
9141;BME280;46330;50.822;7.126;2022-11-20T02:55:34;100506.75;;;2.13;92.34
9141;BME280;46330;50.822;7.126;2022-11-20T02:58:04;100500.75;;;2.14;92.61
9141;BME280;46330;50.822;7.126;2022-11-20T03:00:31;100488.78;;;2.23;92.75
9141;BME280;46330;50.822;7.126;2022-11-20T03:03:00;100489.56;;;2.14;92.18
9141;BME280;46330;50.822;7.126;2022-11-20T03:05:27;100486.94;;;2.12;92.13
9141;BME280;46330;50.822;7.126;2022-11-20T03:07:55;100490.41;;;2.14;92.45
9141;BME280;46330;50.822;7.126;2022-11-20T03:10:23;100487.00;;;2.17;92.78
9141;BME280;46330;50.822;7.126;2022-11-20T03:12:53;100490.50;;;2.21;92.15
9141;BME280;46330;50.822;7.126;2022-11-20T03:15:23;100490.59;;;2.30;92.93
9141;BME280;46330;50.822;7.126;2022-11-20T03:17:53;100490.63;;;2.33;92.21
9141;BME280;46330;50.822;7.126;2022-11-20T03:20:21;100491.44;;;2.27;91.89
9141;BME280;46330;50.822;7.126;2022-11-20T03:22:49;100487.09;;;2.26;92.49
9141;BME280;46330;50.822;7.126;2022-11-20T03:25:17;100499.13;;;2.24;92.66
9141;BME280;46330;50.822;7.126;2022-11-20T03:27:45;100491.34;;;2.21;92.90
9141;BME280;46330;50.822;7.126;2022-11-20T03:30:13;100493.94;;;2.23;92.31
9141;BME280;46330;50.822;7.126;2022-11-20T03:32:43;100496.50;;;2.21;92.56
9141;BME280;46330;50.822;7.126;2022-11-20T03:35:10;100492.16;;;2.18;92.54
9141;BME280;46330;50.822;7.126;2022-11-20T03:37:38;100490.50;;;2.22;93.19
9141;BME280;46330;50.822;7.126;2022-11-20T03:40:07;100481.06;;;2.26;92.60
9141;BME280;46330;50.822;7.126;2022-11-20T03:42:35;100485.25;;;2.16;92.88
9141;BME280;46330;50.822;7.126;2022-11-20T03:45:16;100486.16;;;2.20;93.07
9141;BME280;46330;50.822;7.126;2022-11-20T03:47:45;100483.47;;;2.10;93.59
9141;BME280;46330;50.822;7.126;2022-11-20T03:50:13;100483.47;;;2.10;93.08
9141;BME280;46330;50.822;7.126;2022-11-20T03:52:42;100480.91;;;2.12;93.28
9141;BME280;46330;50.822;7.126;2022-11-20T03:55:09;100484.34;;;2.11;94.09
9141;BME280;46330;50.822;7.126;2022-11-20T03:57:37;100482.66;;;2.13;94.46
9141;BME280;46330;50.822;7.126;2022-11-20T04:00:06;100472.31;;;2.13;93.54
9141;BME280;46330;50.822;7.126;2022-11-20T04:02:34;100471.50;;;2.15;93.21
9141;BME280;46330;50.822;7.126;2022-11-20T04:05:04;100458.56;;;2.12;94.13
9141;BME280;46330;50.822;7.126;2022-11-20T04:07:33;100466.38;;;2.18;93.93
9141;BME280;46330;50.822;7.126;2022-11-20T04:10:02;100471.53;;;2.18;93.72
9141;BME280;46330;50.822;7.126;2022-11-20T04:12:32;100462.13;;;2.22;94.12
9141;BME280;46330;50.822;7.126;2022-11-20T04:15:00;100464.66;;;2.17;93.88
9141;BME280;46330;50.822;7.126;2022-11-20T04:17:27;100469.88;;;2.25;93.61
9141;BME280;46330;50.822;7.126;2022-11-20T04:19:55;100468.22;;;2.27;93.84
9141;BME280;46330;50.822;7.126;2022-11-20T04:22:25;100468.97;;;2.20;93.93
9141;BME280;46330;50.822;7.126;2022-11-20T04:24:52;100460.38;;;2.20;94.28
9141;BME280;46330;50.822;7.126;2022-11-20T04:27:20;100462.03;;;2.16;95.18
9141;BME280;46330;50.822;7.126;2022-11-20T04:29:48;100460.31;;;2.15;95.14
9141;BME280;46330;50.822;7.126;2022-11-20T04:32:16;100461.09;;;2.09;95.43
9141;BME280;46330;50.822;7.126;2022-11-20T04:34:44;100456.00;;;2.15;95.07
9141;BME280;46330;50.822;7.126;2022-11-20T04:37:12;100457.75;;;2.16;95.04
9141;BME280;46330;50.822;7.126;2022-11-20T04:39:41;100446.56;;;2.14;96.04
9141;BME280;46330;50.822;7.126;2022-11-20T04:42:09;100451.72;;;2.14;96.08
9141;BME280;46330;50.822;7.126;2022-11-20T04:44:54;100455.19;;;2.16;96.07
9141;BME280;46330;50.822;7.126;2022-11-20T04:47:23;100448.31;;;2.18;96.49
9141;BME280;46330;50.822;7.126;2022-11-20T04:49:51;100454.31;;;2.14;95.72
9141;BME280;46330;50.822;7.126;2022-11-20T04:52:19;100458.56;;;2.11;96.29
9141;BME280;46330;50.822;7.126;2022-11-20T04:54:48;100455.16;;;2.13;97.18
9141;BME280;46330;50.822;7.126;2022-11-20T04:57:19;100449.16;;;2.16;96.37
9141;BME280;46330;50.822;7.126;2022-11-20T04:59:47;100447.38;;;2.12;96.73
9141;BME280;46330;50.822;7.126;2022-11-20T05:02:15;100457.72;;;2.15;96.69
9141;BME280;46330;50.822;7.126;2022-11-20T05:04:42;100460.31;;;2.13;96.50
9141;BME280;46330;50.822;7.126;2022-11-20T05:07:10;100454.34;;;2.19;97.04
9141;BME280;46330;50.822;7.126;2022-11-20T05:09:38;100450.88;;;2.17;96.37
9141;BME280;46330;50.822;7.126;2022-11-20T05:12:08;100450.88;;;2.17;96.94
9141;BME280;46330;50.822;7.126;2022-11-20T05:14:36;100456.94;;;2.22;96.66
9141;BME280;46330;50.822;7.126;2022-11-20T05:17:04;100469.84;;;2.22;96.55
9141;BME280;46330;50.822;7.126;2022-11-20T05:19:32;100463.88;;;2.28;97.09
9141;BME280;46330;50.822;7.126;2022-11-20T05:22:00;100463.97;;;2.32;96.98
9141;BME280;46330;50.822;7.126;2022-11-20T05:24:28;100457.88;;;2.27;96.32
9141;BME280;46330;50.822;7.126;2022-11-20T05:26:55;100457.03;;;2.28;95.63
9141;BME280;46330;50.822;7.126;2022-11-20T05:29:24;100464.00;;;2.35;95.46
9141;BME280;46330;50.822;7.126;2022-11-20T05:31:52;100450.28;;;2.41;96.34
9141;BME280;46330;50.822;7.126;2022-11-20T05:34:20;100464.00;;;2.37;96.07
9141;BME280;46330;50.822;7.126;2022-11-20T05:36:48;100461.47;;;2.41;96.11
9141;BME280;46330;50.822;7.126;2022-11-20T05:39:16;100448.56;;;2.41;97.37
9141;BME280;46330;50.822;7.126;2022-11-20T05:41:44;100469.19;;;2.38;98.22
9141;BME280;46330;50.822;7.126;2022-11-20T05:44:12;100464.00;;;2.35;98.28
9141;BME280;46330;50.822;7.126;2022-11-20T05:46:41;100461.41;;;2.35;98.04
9141;BME280;46330;50.822;7.126;2022-11-20T05:49:09;100470.84;;;2.33;98.32
9141;BME280;46330;50.822;7.126;2022-11-20T05:51:37;100469.97;;;2.31;99.74
9141;BME280;46330;50.822;7.126;2022-11-20T05:54:05;100466.50;;;2.29;99.32
9141;BME280;46330;50.822;7.126;2022-11-20T05:56:32;100469.06;;;2.26;99.14
9141;BME280;46330;50.822;7.126;2022-11-20T05:59:00;100475.88;;;2.23;99.85
9141;BME280;46330;50.822;7.126;2022-11-20T06:01:28;100474.19;;;2.23;99.15
9141;BME280;46330;50.822;7.126;2022-11-20T06:03:57;100472.44;;;2.22;99.46
9141;BME280;46330;50.822;7.126;2022-11-20T06:06:25;100468.97;;;2.20;99.77
9141;BME280;46330;50.822;7.126;2022-11-20T06:08:54;100465.59;;;2.24;99.26
9141;BME280;46330;50.822;7.126;2022-11-20T06:11:22;100475.03;;;2.25;99.30
9141;BME280;46330;50.822;7.126;2022-11-20T06:13:50;100474.19;;;2.23;99.21
9141;BME280;46330;50.822;7.126;2022-11-20T06:16:19;100479.34;;;2.23;98.35
9141;BME280;46330;50.822;7.126;2022-11-20T06:18:48;100479.38;;;2.26;98.30
9141;BME280;46330;50.822;7.126;2022-11-20T06:21:19;100475.09;;;2.28;97.92
9141;BME280;46330;50.822;7.126;2022-11-20T06:23:47;100474.09;;;2.17;97.66
9141;BME280;46330;50.822;7.126;2022-11-20T06:26:17;100475.03;;;2.25;98.19
9141;BME280;46330;50.822;7.126;2022-11-20T06:28:46;100471.63;;;2.28;98.06
9141;BME280;46330;50.822;7.126;2022-11-20T06:31:16;100470.75;;;2.24;98.26
9141;BME280;46330;50.822;7.126;2022-11-20T06:33:44;100469.88;;;2.24;98.16
9141;BME280;46330;50.822;7.126;2022-11-20T06:36:14;100466.50;;;2.29;98.75
9141;BME280;46330;50.822;7.126;2022-11-20T06:38:44;100472.53;;;2.30;98.43
9141;BME280;46330;50.822;7.126;2022-11-20T06:41:13;100464.78;;;2.31;98.22
9141;BME280;46330;50.822;7.126;2022-11-20T06:43:42;100473.41;;;2.30;98.23
9141;BME280;46330;50.822;7.126;2022-11-20T06:46:11;100479.34;;;2.23;98.31
9141;BME280;46330;50.822;7.126;2022-11-20T06:48:40;100475.91;;;2.24;98.15
9141;BME280;46330;50.822;7.126;2022-11-20T06:51:08;100488.84;;;2.29;98.73
9141;BME280;46330;50.822;7.126;2022-11-20T06:53:36;100488.91;;;2.33;99.08
9141;BME280;46330;50.822;7.126;2022-11-20T06:56:06;100479.44;;;2.32;97.90
9141;BME280;46330;50.822;7.126;2022-11-20T06:58:36;100490.63;;;2.33;97.78
9141;BME280;46330;50.822;7.126;2022-11-20T07:01:05;100487.16;;;2.31;98.38
9141;BME280;46330;50.822;7.126;2022-11-20T07:03:34;100483.66;;;2.24;97.09
9141;BME280;46330;50.822;7.126;2022-11-20T07:06:03;100488.75;;;2.20;97.84
9141;BME280;46330;50.822;7.126;2022-11-20T07:08:32;100483.66;;;2.26;98.33
9141;BME280;46330;50.822;7.126;2022-11-20T07:11:01;100490.63;;;2.33;97.78
9141;BME280;46330;50.822;7.126;2022-11-20T07:13:31;100497.50;;;2.34;96.98
9141;BME280;46330;50.822;7.126;2022-11-20T07:16:00;100495.81;;;2.37;96.72
9141;BME280;46330;50.822;7.126;2022-11-20T07:18:28;100499.34;;;2.44;96.41
9141;BME280;46330;50.822;7.126;2022-11-20T07:21:00;100504.53;;;2.45;95.89
9141;BME280;46330;50.822;7.126;2022-11-20T07:23:28;100502.81;;;2.47;96.41
9141;BME280;46330;50.822;7.126;2022-11-20T07:25:56;100504.63;;;2.56;96.69
9141;BME280;46330;50.822;7.126;2022-11-20T07:28:24;100510.72;;;2.61;96.52
9141;BME280;46330;50.822;7.126;2022-11-20T07:30:53;100511.56;;;2.60;96.66
9141;BME280;46330;50.822;7.126;2022-11-20T07:33:21;100500.38;;;2.59;96.62
9141;BME280;46330;50.822;7.126;2022-11-20T07:35:49;100509.84;;;2.59;96.64
9141;BME280;46330;50.822;7.126;2022-11-20T07:38:16;100506.44;;;2.63;95.73
9141;BME280;46330;50.822;7.126;2022-11-20T07:40:44;100507.28;;;2.62;96.32
9141;BME280;46330;50.822;7.126;2022-11-20T07:43:12;100512.41;;;2.57;95.46
9141;BME280;46330;50.822;7.126;2022-11-20T07:45:41;100506.44;;;2.61;96.02
9141;BME280;46330;50.822;7.126;2022-11-20T07:48:10;100507.34;;;2.66;95.88
9141;BME280;46330;50.822;7.126;2022-11-20T07:50:38;100501.31;;;2.66;95.79
9141;BME280;46330;50.822;7.126;2022-11-20T07:53:06;100513.41;;;2.71;95.81
9141;BME280;46330;50.822;7.126;2022-11-20T07:55:34;100511.69;;;2.72;96.15
9141;BME280;46330;50.822;7.126;2022-11-20T07:58:02;100508.25;;;2.71;96.33
9141;BME280;46330;50.822;7.126;2022-11-20T08:00:31;100504.91;;;2.82;96.01
9141;BME280;46330;50.822;7.126;2022-11-20T08:02:58;100507.56;;;2.86;96.57
9141;BME280;46330;50.822;7.126;2022-11-20T08:05:28;100499.00;;;2.95;96.20
9141;BME280;46330;50.822;7.126;2022-11-20T08:07:56;100512.81;;;2.95;95.13
9141;BME280;46330;50.822;7.126;2022-11-20T08:10:23;100505.06;;;2.97;95.27
9141;BME280;46330;50.822;7.126;2022-11-20T08:12:52;100510.31;;;3.04;94.66
9141;BME280;46330;50.822;7.126;2022-11-20T08:15:39;100501.81;;;3.17;94.94
9141;BME280;46330;50.822;7.126;2022-11-20T08:18:08;100493.16;;;3.15;94.95
9141;BME280;46330;50.822;7.126;2022-11-20T08:21:02;100493.16;;;3.15;95.39
9141;BME280;46330;50.822;7.126;2022-11-20T08:23:30;100502.72;;;3.25;94.78
9141;BME280;46330;50.822;7.126;2022-11-20T08:25:57;100508.66;;;3.14;95.15
9141;BME280;46330;50.822;7.126;2022-11-20T08:28:25;100507.03;;;3.23;95.31
9141;BME280;46330;50.822;7.126;2022-11-20T08:30:58;100501.91;;;3.34;94.74
9141;BME280;46330;50.822;7.126;2022-11-20T08:33:26;100496.72;;;3.31;94.25
9141;BME280;46330;50.822;7.126;2022-11-20T08:35:59;100508.81;;;3.34;93.95
9141;BME280;46330;50.822;7.126;2022-11-20T08:38:28;100505.41;;;3.38;93.50
9141;BME280;46330;50.822;7.126;2022-11-20T08:40:56;100502.81;;;3.38;92.80
9141;BME280;46330;50.822;7.126;2022-11-20T08:43:42;100505.41;;;3.41;93.65
9141;BME280;46330;50.822;7.126;2022-11-20T08:46:10;100514.03;;;3.43;93.25
9141;BME280;46330;50.822;7.126;2022-11-20T08:48:37;100513.31;;;3.57;92.90
9141;BME280;46330;50.822;7.126;2022-11-20T08:51:07;100506.41;;;3.58;92.66
9141;BME280;46330;50.822;7.126;2022-11-20T08:53:34;100509.91;;;3.66;92.64
9141;BME280;46330;50.822;7.126;2022-11-20T08:56:02;100505.69;;;3.83;91.65
9141;BME280;46330;50.822;7.126;2022-11-20T08:58:30;100502.38;;;4.07;89.14
9141;BME280;46330;50.822;7.126;2022-11-20T09:01:19;100508.53;;;4.36;87.62
9141;BME280;46330;50.822;7.126;2022-11-20T09:03:47;100503.25;;;4.15;88.47
9141;BME280;46330;50.822;7.126;2022-11-20T09:06:17;100511.00;;;4.06;89.21
9141;BME280;46330;50.822;7.126;2022-11-20T09:08:45;100512.72;;;4.05;89.78
9141;BME280;46330;50.822;7.126;2022-11-20T09:11:13;100507.50;;;3.99;90.42
9141;BME280;46330;50.822;7.126;2022-11-20T09:13:41;100510.97;;;4.01;89.24
9141;BME280;46330;50.822;7.126;2022-11-20T09:16:09;100498.00;;;3.94;89.38
9141;BME280;46330;50.822;7.126;2022-11-20T09:18:37;100506.63;;;3.96;89.60
9141;BME280;46330;50.822;7.126;2022-11-20T09:21:08;100505.75;;;3.91;89.34
9141;BME280;46330;50.822;7.126;2022-11-20T09:23:38;100491.16;;;4.06;88.73
9141;BME280;46330;50.822;7.126;2022-11-20T09:26:09;100484.28;;;4.11;89.61
9141;BME280;46330;50.822;7.126;2022-11-20T09:28:37;100494.63;;;4.13;88.85
9141;BME280;46330;50.822;7.126;2022-11-20T09:31:05;100496.34;;;4.08;88.50
9141;BME280;46330;50.822;7.126;2022-11-20T09:33:33;100498.13;;;4.19;88.16
9141;BME280;46330;50.822;7.126;2022-11-20T09:36:01;100488.66;;;4.20;88.18
9141;BME280;46330;50.822;7.126;2022-11-20T09:38:29;100491.16;;;4.09;89.69
9141;BME280;46330;50.822;7.126;2022-11-20T09:41:03;100484.28;;;4.14;88.76
9141;BME280;46330;50.822;7.126;2022-11-20T09:43:40;100484.31;;;4.23;88.35
9141;BME280;46330;50.822;7.126;2022-11-20T09:46:17;100491.22;;;4.14;88.57
9141;BME280;46330;50.822;7.126;2022-11-20T09:49:05;100483.47;;;4.20;89.63
9141;BME280;46330;50.822;7.126;2022-11-20T09:51:46;100473.88;;;4.02;89.64
9141;BME280;46330;50.822;7.126;2022-11-20T09:54:20;100493.78;;;4.14;89.42
9141;BME280;46330;50.822;7.126;2022-11-20T09:56:54;100484.19;;;3.90;88.76
9141;BME280;46330;50.822;7.126;2022-11-20T09:59:32;100486.84;;;4.04;88.64
9141;BME280;46330;50.822;7.126;2022-11-20T10:02:03;100475.63;;;4.06;88.36
9141;BME280;46330;50.822;7.126;2022-11-20T10:04:36;100486.00;;;4.12;88.27
9141;BME280;46330;50.822;7.126;2022-11-20T10:07:11;100482.59;;;4.24;88.69
9141;BME280;46330;50.822;7.126;2022-11-20T10:09:59;100484.34;;;4.26;89.55
9141;BME280;46330;50.822;7.126;2022-11-20T10:12:36;100480.88;;;4.27;87.98
9141;BME280;46330;50.822;7.126;2022-11-20T10:15:13;100475.75;;;4.49;87.93
9141;BME280;46330;50.822;7.126;2022-11-20T10:20:43;100480.16;;;4.69;87.81
9141;BME280;46330;50.822;7.126;2022-11-20T10:23:40;100473.25;;;4.76;86.83
9141;BME280;46330;50.822;7.126;2022-11-20T10:26:17;100468.06;;;4.73;87.52
9141;BME280;46330;50.822;7.126;2022-11-20T10:29:00;100462.91;;;4.82;87.45
9141;BME280;46330;50.822;7.126;2022-11-20T10:31:36;100452.53;;;5.11;86.18
9141;BME280;46330;50.822;7.126;2022-11-20T10:34:07;100449.94;;;5.26;84.92
9141;BME280;46330;50.822;7.126;2022-11-20T10:36:47;100453.38;;;5.08;84.90
9141;BME280;46330;50.822;7.126;2022-11-20T10:39:24;100437.84;;;4.87;86.37
9141;BME280;46330;50.822;7.126;2022-11-20T10:41:55;100432.66;;;4.96;86.13
9141;BME280;46330;50.822;7.126;2022-11-20T10:44:28;100435.25;;;4.81;86.52
9141;BME280;46330;50.822;7.126;2022-11-20T10:47:20;100424.88;;;4.93;86.07
9141;BME280;46330;50.822;7.126;2022-11-20T10:49:51;100424.91;;;5.01;85.63
9141;BME280;46330;50.822;7.126;2022-11-20T10:52:25;100424.03;;;5.12;85.77
9141;BME280;46330;50.822;7.126;2022-11-20T10:55:05;100418.00;;;5.04;85.66
9141;BME280;46330;50.822;7.126;2022-11-20T10:57:48;100411.94;;;4.99;85.70
9141;BME280;46330;50.822;7.126;2022-11-20T11:00:21;100420.56;;;4.87;87.02
9141;BME280;46330;50.822;7.126;2022-11-20T11:02:50;100405.91;;;4.76;86.65
9141;BME280;46330;50.822;7.126;2022-11-20T11:05:27;100404.16;;;4.75;86.19
9141;BME280;46330;50.822;7.126;2022-11-20T11:07:59;100403.31;;;4.64;87.57
9141;BME280;46330;50.822;7.126;2022-11-20T11:10:32;100392.06;;;4.68;87.73
9141;BME280;46330;50.822;7.126;2022-11-20T11:13:03;100390.34;;;4.73;87.51
9141;BME280;46330;50.822;7.126;2022-11-20T11:15:38;100381.69;;;4.62;88.34
9141;BME280;46330;50.822;7.126;2022-11-20T11:18:09;100384.31;;;4.57;87.63
9141;BME280;46330;50.822;7.126;2022-11-20T11:20:37;100375.66;;;4.58;87.98
9141;BME280;46330;50.822;7.126;2022-11-20T11:23:30;100367.03;;;4.56;87.84
9141;BME280;46330;50.822;7.126;2022-11-20T11:26:01;100372.22;;;4.77;87.83
9141;BME280;46330;50.822;7.126;2022-11-20T11:28:29;100372.19;;;4.83;87.97
9141;BME280;46330;50.822;7.126;2022-11-20T11:30:59;100360.13;;;4.84;87.38
9141;BME280;46330;50.822;7.126;2022-11-20T11:33:29;100344.59;;;4.85;87.66
9141;BME280;46330;50.822;7.126;2022-11-20T11:35:59;100343.69;;;4.99;86.95
9141;BME280;46330;50.822;7.126;2022-11-20T11:38:30;100343.69;;;5.06;87.43
9141;BME280;46330;50.822;7.126;2022-11-20T11:41:01;100348.81;;;5.35;87.84
9141;BME280;46330;50.822;7.126;2022-11-20T11:43:32;100341.03;;;5.27;85.51
9141;BME280;46330;50.822;7.126;2022-11-20T11:46:29;100336.69;;;5.45;85.75
9141;BME280;46330;50.822;7.126;2022-11-20T11:48:58;100328.97;;;5.22;85.65
9141;BME280;46330;50.822;7.126;2022-11-20T11:51:34;100335.88;;;5.20;86.62
9141;BME280;46330;50.822;7.126;2022-11-20T11:54:12;100331.56;;;5.14;87.19
9141;BME280;46330;50.822;7.126;2022-11-20T11:56:43;100329.84;;;4.95;87.65
9141;BME280;46330;50.822;7.126;2022-11-20T11:59:18;100333.34;;;4.86;88.36
9141;BME280;46330;50.822;7.126;2022-11-20T12:01:55;100330.75;;;4.85;88.03
9141;BME280;46330;50.822;7.126;2022-11-20T12:04:37;100329.88;;;4.80;88.10
9141;BME280;46330;50.822;7.126;2022-11-20T12:07:11;100322.13;;;4.80;89.07
9141;BME280;46330;50.822;7.126;2022-11-20T12:10:02;100305.69;;;4.76;88.94
9141;BME280;46330;50.822;7.126;2022-11-20T12:12:34;100305.72;;;4.73;88.90
9141;BME280;46330;50.822;7.126;2022-11-20T12:15:11;100304.00;;;4.69;88.94
9141;BME280;46330;50.822;7.126;2022-11-20T12:17:40;100303.13;;;4.70;89.70
9141;BME280;46330;50.822;7.126;2022-11-20T12:20:12;100300.53;;;4.61;90.15
9141;BME280;46330;50.822;7.126;2022-11-20T12:22:47;100285.00;;;4.72;90.49
9141;BME280;46330;50.822;7.126;2022-11-20T12:25:20;100280.69;;;4.71;89.90
9141;BME280;46330;50.822;7.126;2022-11-20T12:30:50;100281.47;;;4.99;89.53
9141;BME280;46330;50.822;7.126;2022-11-20T12:33:31;100278.03;;;4.98;89.82
9141;BME280;46330;50.822;7.126;2022-11-20T12:36:16;100263.38;;;4.91;89.32
9141;BME280;46330;50.822;7.126;2022-11-20T12:38:55;100272.00;;;5.04;89.36
9141;BME280;46330;50.822;7.126;2022-11-20T12:45:02;100254.63;;;5.22;88.47
9141;BME280;46330;50.822;7.126;2022-11-20T12:47:55;100253.75;;;5.25;88.21
9141;BME280;46330;50.822;7.126;2022-11-20T12:50:35;100259.75;;;5.33;87.68
9141;BME280;46330;50.822;7.126;2022-11-20T12:53:33;100246.88;;;5.18;88.43
9141;BME280;46330;50.822;7.126;2022-11-20T12:56:16;100242.56;;;5.20;88.15
9141;BME280;46330;50.822;7.126;2022-11-20T12:58:54;100239.09;;;5.18;88.77
9141;BME280;46330;50.822;7.126;2022-11-20T13:01:30;100232.19;;;5.17;88.13
9141;BME280;46330;50.822;7.126;2022-11-20T13:04:24;100231.25;;;5.34;88.57
9141;BME280;46330;50.822;7.126;2022-11-20T13:07:01;100226.03;;;5.40;87.45
9141;BME280;46330;50.822;7.126;2022-11-20T13:09:30;100221.75;;;5.30;88.47
9141;BME280;46330;50.822;7.126;2022-11-20T13:12:04;100209.66;;;5.29;87.87
9141;BME280;46330;50.822;7.126;2022-11-20T13:14:37;100203.56;;;5.36;88.12
9141;BME280;46330;50.822;7.126;2022-11-20T13:17:13;100203.59;;;5.32;88.77
9141;BME280;46330;50.822;7.126;2022-11-20T13:19:47;100200.19;;;5.25;88.74
9141;BME280;46330;50.822;7.126;2022-11-20T13:22:25;100191.50;;;5.29;89.08
9141;BME280;46330;50.822;7.126;2022-11-20T13:24:54;100192.41;;;5.25;89.57
9141;BME280;46330;50.822;7.126;2022-11-20T13:27:23;100190.66;;;5.32;88.49
9141;BME280;46330;50.822;7.126;2022-11-20T13:30:12;100184.50;;;5.47;88.33
9141;BME280;46330;50.822;7.126;2022-11-20T13:32:51;100183.63;;;5.51;89.16
9141;BME280;46330;50.822;7.126;2022-11-20T13:35:29;100181.78;;;5.66;88.82
9141;BME280;46330;50.822;7.126;2022-11-20T13:38:04;100163.69;;;5.60;88.15
9141;BME280;46330;50.822;7.126;2022-11-20T13:40:33;100163.66;;;5.62;87.84